Time;durP1;ratioP1;P1;durP2;ratioP2;P2;SDS_P1;SDS_P2;PMS_P1;PMS_P2;Temp;Humidity;BMP_temperature;BMP_pressure;BME280_temperature;BME280_humidity;BME280_pressure;Samples;Min_cycle;Max_cycle;Signal;HPM_P1;HPM_P2
2021/07/15 00:00:02;;;;;;;5.60;3.58;;;;;;;;;;2062772;28;20174;-56
2021/07/15 00:01:06;;;;;;;5.75;3.67;;;;;;;;;;2072648;28;20731;-55
2021/07/15 00:02:08;;;;;;;5.20;3.90;;;;;;;;;;2073094;28;20564;-60
2021/07/15 00:03:09;;;;;;;4.45;3.95;;;;;;;;;;2073107;28;20279;-59
2021/07/15 00:04:13;;;;;;;6.70;4.20;;;;;;;;;;2070701;28;20306;-55
2021/07/15 00:05:14;;;;;;;6.13;4.00;;;;;;;;;;2073304;28;20220;-56
2021/07/15 00:06:14;;;;;;;6.25;4.07;;;;;;;;;;2072575;28;20848;-57
2021/07/15 00:07:15;;;;;;;4.93;4.05;;;;;;;;;;2073288;28;20169;-57
2021/07/15 00:08:23;;;;;;;6.65;3.90;;;;;;;;;;2073161;28;20703;-58
2021/07/15 00:09:23;;;;;;;4.53;3.92;;;;;;;;;;2072278;28;20638;-52
2021/07/15 00:10:30;;;;;;;5.15;3.72;;;;;;;;;;2068867;28;20177;-54
2021/07/15 00:11:32;;;;;;;10.98;3.85;;;;;;;;;;2070896;28;20661;-57
2021/07/15 00:12:33;;;;;;;5.55;3.90;;;;;;;;;;2073486;28;20169;-58
2021/07/15 00:13:33;;;;;;;5.03;3.20;;;;;;;;;;2073746;28;20173;-58
2021/07/15 00:14:34;;;;;;;6.63;3.38;;;;;;;;;;2073416;28;20180;-58
2021/07/15 00:15:36;;;;;;;4.00;3.67;;;;;;;;;;2073175;28;20251;-58
2021/07/15 00:16:36;;;;;;;3.60;3.35;;;;;;;;;;2073789;28;20225;-57
2021/07/15 00:17:37;;;;;;;9.57;3.78;;;;;;;;;;2073818;28;20243;-57
2021/07/15 00:18:39;;;;;;;3.65;3.22;;;;;;;;;;2064559;28;20594;-58
2021/07/15 00:19:40;;;;;;;5.05;3.67;;;;;;;;;;2065158;28;20265;-58
2021/07/15 00:20:42;;;;;;;4.32;3.97;;;;;;;;;;2073614;28;20173;-57
2021/07/15 00:21:42;;;;;;;6.90;4.00;;;;;;;;;;2073034;28;20184;-59
2021/07/15 00:22:42;;;;;;;7.85;3.80;;;;;;;;;;2073662;28;20675;-58
2021/07/15 00:23:43;;;;;;;4.32;3.90;;;;;;;;;;2064835;28;20680;-57
2021/07/15 00:24:43;;;;;;;5.43;3.85;;;;;;;;;;2064962;28;20244;-58
2021/07/15 00:25:44;;;;;;;4.75;3.60;;;;;;;;;;2073431;28;20291;-57
2021/07/15 00:26:45;;;;;;;4.68;3.75;;;;;;;;;;2081032;28;20207;-57
2021/07/15 00:27:46;;;;;;;4.60;3.40;;;;;;;;;;2072752;28;20715;-57
2021/07/15 00:28:46;;;;;;;7.22;3.80;;;;;;;;;;2062227;28;20177;-59
2021/07/15 00:29:46;;;;;;;5.65;3.83;;;;;;;;;;2056860;28;20253;-58
2021/07/15 00:30:47;;;;;;;7.47;3.88;;;;;;;;;;2065457;28;20290;-60
2021/07/15 00:31:47;;;;;;;3.53;3.22;;;;;;;;;;2065206;28;20174;-58
2021/07/15 00:32:47;;;;;;;4.93;3.47;;;;;;;;;;2056983;28;20229;-58
2021/07/15 00:33:48;;;;;;;5.82;3.47;;;;;;;;;;2056724;28;20162;-57
2021/07/15 00:34:48;;;;;;;7.30;3.88;;;;;;;;;;2067203;28;20177;-56
2021/07/15 00:35:48;;;;;;;5.18;3.60;;;;;;;;;;2072884;28;20161;-58
2021/07/15 00:36:48;;;;;;;9.63;4.00;;;;;;;;;;2072735;28;20196;-59
2021/07/15 00:37:49;;;;;;;7.57;3.80;;;;;;;;;;2072879;28;20196;-61
2021/07/15 00:38:49;;;;;;;9.00;4.07;;;;;;;;;;2061860;28;20808;-60
2021/07/15 00:39:49;;;;;;;7.10;3.42;;;;;;;;;;2063996;28;20232;-59
2021/07/15 00:40:50;;;;;;;5.55;3.83;;;;;;;;;;2073477;28;20163;-57
2021/07/15 00:41:50;;;;;;;6.57;3.60;;;;;;;;;;2072469;28;20177;-59
2021/07/15 00:42:51;;;;;;;7.45;4.20;;;;;;;;;;2072749;28;20240;-61
2021/07/15 00:43:51;;;;;;;6.13;3.67;;;;;;;;;;2067773;28;20173;-58
2021/07/15 00:44:51;;;;;;;8.02;3.88;;;;;;;;;;2073500;28;20165;-60
2021/07/15 00:45:52;;;;;;;5.07;3.88;;;;;;;;;;2069582;28;20211;-60
2021/07/15 00:46:52;;;;;;;4.80;2.92;;;;;;;;;;2072685;28;20177;-59
2021/07/15 00:47:52;;;;;;;6.10;3.75;;;;;;;;;;2072684;28;20176;-59
2021/07/15 00:48:52;;;;;;;7.63;3.55;;;;;;;;;;2070933;28;21670;-60
2021/07/15 00:49:53;;;;;;;7.35;3.72;;;;;;;;;;2064006;28;20180;-59
2021/07/15 00:50:53;;;;;;;4.90;3.92;;;;;;;;;;2064487;28;20174;-60
2021/07/15 00:51:53;;;;;;;3.95;3.53;;;;;;;;;;2073100;28;20167;-58
2021/07/15 00:52:54;;;;;;;5.30;3.70;;;;;;;;;;2072765;28;20538;-60
2021/07/15 00:53:54;;;;;;;7.72;3.80;;;;;;;;;;2072610;28;20200;-57
2021/07/15 00:54:54;;;;;;;5.10;3.80;;;;;;;;;;2068542;28;20626;-60
2021/07/15 00:55:55;;;;;;;5.35;3.67;;;;;;;;;;2073048;28;20618;-60
2021/07/15 00:56:55;;;;;;;4.53;3.42;;;;;;;;;;2064681;28;20174;-60
2021/07/15 00:57:55;;;;;;;7.28;3.80;;;;;;;;;;2064710;28;20162;-58
2021/07/15 00:58:56;;;;;;;4.30;3.90;;;;;;;;;;2072864;28;20173;-60
2021/07/15 00:59:56;;;;;;;5.60;3.55;;;;;;;;;;2072231;28;20172;-60
2021/07/15 01:00:57;;;;;;;5.00;3.65;;;;;;;;;;2073123;28;20177;-59
2021/07/15 01:01:57;;;;;;;7.18;3.60;;;;;;;;;;2073063;28;20172;-58
2021/07/15 01:02:57;;;;;;;4.85;3.60;;;;;;;;;;2072633;28;20634;-60
2021/07/15 01:03:57;;;;;;;5.22;3.45;;;;;;;;;;2072369;28;20238;-60
2021/07/15 01:04:58;;;;;;;5.20;3.65;;;;;;;;;;2073125;28;20184;-60
2021/07/15 01:05:58;;;;;;;4.53;3.25;;;;;;;;;;2064240;28;20170;-60
2021/07/15 01:06:58;;;;;;;6.75;3.63;;;;;;;;;;2064005;28;20216;-58
2021/07/15 01:08:02;;;;;;;4.60;3.55;;;;;;;;;;2071882;28;20185;-60
2021/07/15 01:09:03;;;;;;;5.20;3.42;;;;;;;;;;2071143;28;20578;-59
2021/07/15 01:10:04;;;;;;;4.55;3.25;;;;;;;;;;2072567;28;20177;-59
2021/07/15 01:11:11;;;;;;;5.82;3.78;;;;;;;;;;2063605;28;20177;-56
2021/07/15 01:12:16;;;;;;;6.05;3.63;;;;;;;;;;2064716;28;20170;-59
2021/07/15 01:13:25;;;;;;;3.65;3.35;;;;;;;;;;2072037;28;20556;-59
2021/07/15 01:14:32;;;;;;;5.82;3.60;;;;;;;;;;2072854;28;20172;-59
2021/07/15 01:15:52;;;;;;;4.38;3.60;;;;;;;;;;2070798;28;20184;-60
2021/07/15 01:16:57;;;;;;;4.43;3.80;;;;;;;;;;2067338;28;20197;-59
2021/07/15 01:18:17;;;;;;;6.90;3.85;;;;;;;;;;2072399;28;20195;-60
2021/07/15 01:19:36;;;;;;;7.13;4.05;;;;;;;;;;2070647;28;20196;-59
2021/07/15 01:20:55;;;;;;;8.38;4.03;;;;;;;;;;2061030;28;20625;-60
2021/07/15 01:22:05;;;;;;;5.88;3.45;;;;;;;;;;2059343;28;20758;-58
2021/07/15 01:23:13;;;;;;;4.25;3.88;;;;;;;;;;2068432;28;20267;-60
2021/07/15 01:24:33;;;;;;;9.68;4.65;;;;;;;;;;2072129;28;20247;-54
2021/07/15 01:25:36;;;;;;;9.18;3.70;;;;;;;;;;2072441;28;20204;-60
2021/07/15 01:27:01;;;;;;;4.55;4.10;;;;;;;;;;2068596;28;20197;-58
2021/07/15 01:28:05;;;;;;;3.80;3.45;;;;;;;;;;2066530;28;20160;-59
2021/07/15 01:29:11;;;;;;;5.05;3.80;;;;;;;;;;2067771;28;20535;-59
2021/07/15 01:30:18;;;;;;;4.97;3.67;;;;;;;;;;2070620;28;20566;-60
2021/07/15 01:31:18;;;;;;;6.63;3.55;;;;;;;;;;2068551;28;20563;-60
2021/07/15 01:32:21;;;;;;;3.95;3.65;;;;;;;;;;2072215;28;20177;-59
2021/07/15 01:33:22;;;;;;;5.03;4.53;;;;;;;;;;2072284;28;20189;-59
2021/07/15 01:34:23;;;;;;;7.18;4.32;;;;;;;;;;2069457;28;20929;-58
2021/07/15 01:35:26;;;;;;;5.03;4.00;;;;;;;;;;2069587;28;20177;-60
2021/07/15 01:36:27;;;;;;;5.55;3.90;;;;;;;;;;2067237;28;20678;-58
2021/07/15 01:37:30;;;;;;;4.93;3.65;;;;;;;;;;2070074;28;20188;-60
2021/07/15 01:38:41;;;;;;;6.80;3.53;;;;;;;;;;2067003;28;20189;-59
2021/07/15 01:39:44;;;;;;;4.72;4.00;;;;;;;;;;2072682;28;20180;-58
2021/07/15 01:40:49;;;;;;;5.78;3.97;;;;;;;;;;2072893;28;20189;-60
2021/07/15 01:41:52;;;;;;;10.75;4.13;;;;;;;;;;2064987;28;20248;-59
2021/07/15 01:42:55;;;;;;;8.45;3.80;;;;;;;;;;2072534;28;20185;-60
2021/07/15 01:43:59;;;;;;;6.20;4.00;;;;;;;;;;2072141;28;20201;-60
2021/07/15 01:45:00;;;;;;;8.48;4.32;;;;;;;;;;2072158;28;20165;-60
2021/07/15 01:46:02;;;;;;;6.78;4.15;;;;;;;;;;2071530;28;20617;-60
2021/07/15 01:47:03;;;;;;;5.07;3.67;;;;;;;;;;2072242;28;20176;-61
2021/07/15 01:48:03;;;;;;;5.78;4.07;;;;;;;;;;2070697;28;20188;-58
2021/07/15 01:49:04;;;;;;;7.00;3.90;;;;;;;;;;2070097;28;20180;-59
2021/07/15 01:50:04;;;;;;;5.65;3.83;;;;;;;;;;2069397;28;20555;-58
2021/07/15 01:51:05;;;;;;;6.38;4.03;;;;;;;;;;2067129;28;20294;-58
2021/07/15 01:52:06;;;;;;;7.45;3.95;;;;;;;;;;2070521;28;20177;-60
2021/07/15 01:53:07;;;;;;;6.93;4.35;;;;;;;;;;2072189;28;20605;-59
2021/07/15 01:54:08;;;;;;;5.68;3.67;;;;;;;;;;2069893;28;20246;-57
2021/07/15 01:55:09;;;;;;;8.60;4.22;;;;;;;;;;2072309;28;20778;-59
2021/07/15 01:56:10;;;;;;;6.07;4.40;;;;;;;;;;2068945;28;20218;-57
2021/07/15 01:57:12;;;;;;;4.85;3.70;;;;;;;;;;2072467;28;20169;-60
2021/07/15 01:58:13;;;;;;;5.15;3.75;;;;;;;;;;2068799;28;20605;-60
2021/07/15 01:59:15;;;;;;;4.43;3.83;;;;;;;;;;2070439;28;20219;-60
2021/07/15 02:00:15;;;;;;;6.60;4.50;;;;;;;;;;2069210;28;20231;-60
2021/07/15 02:01:16;;;;;;;4.80;3.58;;;;;;;;;;2071319;28;20189;-59
2021/07/15 02:02:17;;;;;;;6.75;3.72;;;;;;;;;;2068889;28;20177;-60
2021/07/15 02:03:17;;;;;;;5.25;3.78;;;;;;;;;;2071568;28;20544;-51
2021/07/15 02:04:18;;;;;;;3.53;3.22;;;;;;;;;;2072560;28;20259;-60
2021/07/15 02:05:18;;;;;;;4.70;3.30;;;;;;;;;;2071941;28;20227;-60
2021/07/15 02:06:19;;;;;;;5.30;3.70;;;;;;;;;;2090902;23;23123;-50
2021/07/15 02:07:19;;;;;;;8.13;3.88;;;;;;;;;;2068525;28;20231;-52
2021/07/15 02:08:20;;;;;;;4.03;3.33;;;;;;;;;;2072065;28;20640;-52
2021/07/15 02:09:21;;;;;;;4.15;3.65;;;;;;;;;;2069261;28;20178;-54
2021/07/15 02:10:23;;;;;;;5.78;3.38;;;;;;;;;;2069061;28;20517;-53
2021/07/15 02:11:24;;;;;;;4.07;3.40;;;;;;;;;;2067965;28;20197;-52
2021/07/15 02:12:25;;;;;;;3.72;3.40;;;;;;;;;;2069483;28;20258;-56
2021/07/15 02:13:25;;;;;;;4.45;3.95;;;;;;;;;;2072043;28;20174;-54
2021/07/15 02:14:27;;;;;;;6.03;4.50;;;;;;;;;;2071643;28;20573;-54
2021/07/15 02:15:27;;;;;;;4.40;3.63;;;;;;;;;;2072003;28;20181;-52
2021/07/15 02:16:28;;;;;;;8.60;3.85;;;;;;;;;;2066831;28;20701;-54
2021/07/15 02:17:29;;;;;;;11.60;4.20;;;;;;;;;;2069867;28;20251;-57
2021/07/15 02:18:30;;;;;;;5.78;3.78;;;;;;;;;;2066062;28;20671;-54
2021/07/15 02:19:31;;;;;;;6.65;3.78;;;;;;;;;;2070161;28;20189;-53
2021/07/15 02:20:31;;;;;;;6.03;3.80;;;;;;;;;;2073574;28;20580;-56
2021/07/15 02:21:33;;;;;;;3.78;3.40;;;;;;;;;;2067603;28;20272;-55
2021/07/15 02:22:34;;;;;;;5.38;3.42;;;;;;;;;;2072745;28;20671;-53
2021/07/15 02:23:34;;;;;;;6.50;3.70;;;;;;;;;;2073659;28;20187;-54
2021/07/15 02:24:35;;;;;;;4.15;3.38;;;;;;;;;;2072865;28;20205;-51
2021/07/15 02:25:38;;;;;;;6.00;3.97;;;;;;;;;;2074476;28;20219;-54
2021/07/15 02:26:40;;;;;;;6.55;3.83;;;;;;;;;;2075153;28;20661;-56
2021/07/15 02:27:42;;;;;;;4.65;3.42;;;;;;;;;;2075258;28;20189;-54
2021/07/15 02:28:42;;;;;;;3.38;3.13;;;;;;;;;;2073557;28;20667;-50
2021/07/15 02:29:43;;;;;;;4.13;3.53;;;;;;;;;;2073713;28;20180;-51
2021/07/15 02:30:45;;;;;;;5.10;3.60;;;;;;;;;;2072916;28;20177;-54
2021/07/15 02:31:45;;;;;;;5.63;3.58;;;;;;;;;;2065429;28;20169;-52
2021/07/15 02:32:49;;;;;;;4.20;3.22;;;;;;;;;;2072997;28;20185;-53
2021/07/15 02:33:52;;;;;;;5.32;3.03;;;;;;;;;;2073209;28;20165;-52
2021/07/15 02:35:01;;;;;;;3.97;3.50;;;;;;;;;;2071993;28;20248;-52
2021/07/15 02:36:02;;;;;;;4.60;3.63;;;;;;;;;;2072851;28;20645;-53
2021/07/15 02:37:05;;;;;;;4.22;3.80;;;;;;;;;;2063262;28;20225;-52
2021/07/15 02:38:08;;;;;;;5.47;3.85;;;;;;;;;;2073040;28;20271;-53
2021/07/15 02:39:09;;;;;;;5.82;3.47;;;;;;;;;;2073055;28;20196;-54
2021/07/15 02:40:11;;;;;;;6.03;3.33;;;;;;;;;;2073745;28;20719;-51
2021/07/15 02:41:11;;;;;;;4.75;3.35;;;;;;;;;;2072864;28;20184;-55
2021/07/15 02:42:12;;;;;;;4.25;3.42;;;;;;;;;;2073523;28;20595;-52
2021/07/15 02:43:12;;;;;;;4.47;3.92;;;;;;;;;;2069747;28;20181;-52
2021/07/15 02:44:12;;;;;;;3.50;3.17;;;;;;;;;;2069170;28;20243;-54
2021/07/15 02:45:17;;;;;;;3.10;2.90;;;;;;;;;;2073320;28;20212;-54
2021/07/15 02:46:18;;;;;;;7.70;3.25;;;;;;;;;;2073277;28;20548;-51
2021/07/15 02:47:18;;;;;;;4.80;3.65;;;;;;;;;;2073796;28;20203;-52
2021/07/15 02:48:19;;;;;;;8.88;5.15;;;;;;;;;;2072843;28;20713;-52
2021/07/15 02:49:19;;;;;;;6.15;3.80;;;;;;;;;;2071016;28;20177;-53
2021/07/15 02:50:21;;;;;;;7.55;4.35;;;;;;;;;;2071995;28;20169;-56
2021/07/15 02:51:22;;;;;;;4.70;4.20;;;;;;;;;;2070412;28;20181;-55
2021/07/15 02:52:22;;;;;;;3.92;3.63;;;;;;;;;;2071152;28;20178;-51
2021/07/15 02:53:22;;;;;;;6.00;3.70;;;;;;;;;;2064299;28;20185;-56
2021/07/15 02:54:23;;;;;;;5.45;3.67;;;;;;;;;;2072639;28;20204;-51
2021/07/15 02:55:25;;;;;;;4.85;3.50;;;;;;;;;;2073713;28;20203;-54
2021/07/15 02:56:31;;;;;;;5.10;3.40;;;;;;;;;;2073534;28;20287;-53
2021/07/15 02:57:38;;;;;;;3.72;3.28;;;;;;;;;;2072314;28;20180;-54
2021/07/15 02:58:41;;;;;;;3.40;3.20;;;;;;;;;;2072977;28;20208;-54
2021/07/15 02:59:47;;;;;;;5.97;3.60;;;;;;;;;;2064529;28;20627;-54
2021/07/15 03:00:55;;;;;;;3.90;3.40;;;;;;;;;;2060598;28;20659;-55
2021/07/15 03:02:16;;;;;;;4.40;3.47;;;;;;;;;;2079904;28;20180;-53
2021/07/15 03:03:35;;;;;;;5.03;3.28;;;;;;;;;;2069332;28;20185;-55
2021/07/15 03:04:41;;;;;;;3.42;3.13;;;;;;;;;;2073450;28;20269;-54
2021/07/15 03:05:45;;;;;;;6.15;4.15;;;;;;;;;;2066436;28;20658;-55
2021/07/15 03:06:45;;;;;;;5.00;3.40;;;;;;;;;;2065122;28;20725;-52
2021/07/15 03:07:47;;;;;;;4.68;3.45;;;;;;;;;;2073280;28;20221;-54
2021/07/15 03:08:53;;;;;;;8.88;3.55;;;;;;;;;;2073283;28;20213;-56
2021/07/15 03:09:54;;;;;;;6.88;3.70;;;;;;;;;;2073633;28;20165;-54
2021/07/15 03:10:55;;;;;;;5.63;3.90;;;;;;;;;;2072474;28;20669;-54
2021/07/15 03:12:21;;;;;;;6.57;3.80;;;;;;;;;;2066499;28;20185;-53
2021/07/15 03:13:22;;;;;;;8.05;3.80;;;;;;;;;;2068929;28;20196;-54
2021/07/15 03:14:26;;;;;;;6.30;3.85;;;;;;;;;;2073021;28;20263;-51
2021/07/15 03:15:26;;;;;;;11.60;4.53;;;;;;;;;;2072615;28;20681;-55
2021/07/15 03:16:27;;;;;;;6.50;3.60;;;;;;;;;;2067402;28;20197;-53
2021/07/15 03:17:34;;;;;;;7.95;3.95;;;;;;;;;;2066441;28;20189;-53
2021/07/15 03:18:35;;;;;;;11.27;4.05;;;;;;;;;;2071018;28;20185;-57
2021/07/15 03:19:37;;;;;;;6.05;3.45;;;;;;;;;;2072509;28;20182;-52
2021/07/15 03:20:39;;;;;;;8.45;3.78;;;;;;;;;;2071149;28;20185;-53
2021/07/15 03:21:41;;;;;;;7.38;4.30;;;;;;;;;;2072525;28;20173;-56
2021/07/15 03:22:44;;;;;;;8.23;3.92;;;;;;;;;;2073099;28;20186;-53
2021/07/15 03:23:46;;;;;;;7.63;4.55;;;;;;;;;;2074423;28;20653;-53
2021/07/15 03:25:06;;;;;;;9.60;4.00;;;;;;;;;;2074227;28;20634;-56
2021/07/15 03:26:07;;;;;;;5.80;4.40;;;;;;;;;;2074331;28;20185;-50
2021/07/15 03:27:08;;;;;;;8.10;4.15;;;;;;;;;;2074104;28;20172;-51
2021/07/15 03:28:09;;;;;;;8.02;4.18;;;;;;;;;;2074320;28;20161;-51
2021/07/15 03:29:12;;;;;;;6.43;4.20;;;;;;;;;;2074322;28;20188;-52
2021/07/15 03:30:13;;;;;;;7.70;4.20;;;;;;;;;;2074534;28;20181;-53
2021/07/15 03:31:14;;;;;;;9.98;4.55;;;;;;;;;;2072848;28;20180;-52
2021/07/15 03:32:15;;;;;;;4.35;3.95;;;;;;;;;;2072928;28;20264;-51
2021/07/15 03:33:16;;;;;;;10.27;4.35;;;;;;;;;;2074363;28;20558;-52
2021/07/15 03:34:16;;;;;;;6.53;3.88;;;;;;;;;;2075314;28;20652;-52
2021/07/15 03:35:17;;;;;;;6.90;3.83;;;;;;;;;;2075071;28;20251;-52
2021/07/15 03:36:18;;;;;;;5.18;4.32;;;;;;;;;;2075635;28;20203;-51
2021/07/15 03:37:18;;;;;;;9.57;4.38;;;;;;;;;;2075190;28;20181;-54
2021/07/15 03:38:19;;;;;;;9.40;4.43;;;;;;;;;;2074469;28;20253;-51
2021/07/15 03:39:19;;;;;;;9.60;4.32;;;;;;;;;;2074423;28;20177;-51
2021/07/15 03:40:24;;;;;;;8.55;4.47;;;;;;;;;;2074817;28;20177;-54
2021/07/15 03:41:25;;;;;;;8.68;4.15;;;;;;;;;;2073478;28;20244;-51
2021/07/15 03:42:27;;;;;;;6.95;4.50;;;;;;;;;;2073989;28;20185;-52
2021/07/15 03:43:27;;;;;;;7.82;4.38;;;;;;;;;;2066453;28;20182;-52
2021/07/15 03:44:28;;;;;;;5.82;4.63;;;;;;;;;;2066343;28;20593;-52
2021/07/15 03:45:28;;;;;;;9.85;4.30;;;;;;;;;;2066415;28;20197;-56
2021/07/15 03:46:29;;;;;;;8.57;4.60;;;;;;;;;;2065656;28;20206;-54
2021/07/15 03:47:31;;;;;;;5.47;4.30;;;;;;;;;;2066032;28;20178;-53
2021/07/15 03:48:32;;;;;;;7.18;4.68;;;;;;;;;;2066777;28;20192;-52
2021/07/15 03:49:32;;;;;;;6.32;4.47;;;;;;;;;;2066682;28;20162;-53
2021/07/15 03:50:33;;;;;;;8.25;4.97;;;;;;;;;;2069706;28;20215;-53
2021/07/15 03:51:34;;;;;;;7.35;4.70;;;;;;;;;;2066535;28;20221;-50
2021/07/15 03:52:35;;;;;;;5.93;4.40;;;;;;;;;;2068137;28;20192;-54
2021/07/15 03:53:37;;;;;;;6.82;4.65;;;;;;;;;;2072472;28;20173;-50
2021/07/15 03:54:38;;;;;;;8.82;4.65;;;;;;;;;;2068238;28;20793;-51
2021/07/15 03:55:40;;;;;;;9.40;4.57;;;;;;;;;;2072769;28;20196;-53
2021/07/15 03:56:42;;;;;;;6.90;4.70;;;;;;;;;;2073772;28;20207;-53
2021/07/15 03:57:43;;;;;;;5.75;4.35;;;;;;;;;;2060021;28;20170;-51
2021/07/15 03:58:44;;;;;;;7.82;5.00;;;;;;;;;;2073249;28;20272;-52
2021/07/15 03:59:51;;;;;;;6.95;4.00;;;;;;;;;;2067213;28;20174;-55
2021/07/15 04:00:55;;;;;;;7.20;3.97;;;;;;;;;;2069951;28;20196;-53
2021/07/15 04:01:57;;;;;;;5.35;4.63;;;;;;;;;;2068621;28;20170;-54
2021/07/15 04:03:00;;;;;;;9.32;5.30;;;;;;;;;;2075122;28;20173;-54
2021/07/15 04:04:00;;;;;;;7.32;5.20;;;;;;;;;;2072580;28;20161;-55
2021/07/15 04:05:01;;;;;;;6.70;4.90;;;;;;;;;;2069387;28;20185;-54
2021/07/15 04:06:02;;;;;;;7.53;4.93;;;;;;;;;;2074085;28;20216;-56
2021/07/15 04:07:03;;;;;;;7.55;4.40;;;;;;;;;;2074410;28;20165;-52
2021/07/15 04:08:05;;;;;;;5.05;4.45;;;;;;;;;;2073959;28;20164;-54
2021/07/15 04:09:07;;;;;;;8.52;4.45;;;;;;;;;;2072457;28;20180;-52
2021/07/15 04:10:11;;;;;;;6.55;4.70;;;;;;;;;;2071179;28;20621;-55
2021/07/15 04:11:14;;;;;;;5.25;4.70;;;;;;;;;;2068109;28;20185;-51
2021/07/15 04:12:17;;;;;;;7.40;4.93;;;;;;;;;;2073031;28;20265;-54
2021/07/15 04:13:18;;;;;;;5.00;4.32;;;;;;;;;;2073874;28;20184;-54
2021/07/15 04:14:32;;;;;;;4.65;4.10;;;;;;;;;;2073389;28;20191;-55
2021/07/15 04:15:52;;;;;;;6.78;4.82;;;;;;;;;;2072497;28;20175;-51
2021/07/15 04:17:02;;;;;;;6.43;4.70;;;;;;;;;;2065471;28;20203;-53
2021/07/15 04:18:03;;;;;;;6.45;4.20;;;;;;;;;;2072454;28;20259;-52
2021/07/15 04:19:05;;;;;;;10.18;4.60;;;;;;;;;;2072771;28;20267;-53
2021/07/15 04:20:08;;;;;;;5.22;4.60;;;;;;;;;;2072724;28;20177;-51
2021/07/15 04:21:10;;;;;;;5.78;4.78;;;;;;;;;;2070082;28;20188;-53
2021/07/15 04:22:12;;;;;;;4.95;4.53;;;;;;;;;;2073180;28;20188;-54
2021/07/15 04:23:12;;;;;;;6.22;4.93;;;;;;;;;;2073361;28;20649;-50
2021/07/15 04:24:13;;;;;;;8.02;4.85;;;;;;;;;;2069705;28;20219;-55
2021/07/15 04:25:14;;;;;;;6.00;4.80;;;;;;;;;;2071497;28;20263;-54
2021/07/15 04:26:16;;;;;;;4.95;4.25;;;;;;;;;;2073607;28;20218;-54
2021/07/15 04:27:16;;;;;;;5.15;3.95;;;;;;;;;;2073942;28;20173;-52
2021/07/15 04:28:17;;;;;;;6.22;3.92;;;;;;;;;;2066502;28;20177;-51
2021/07/15 04:29:18;;;;;;;4.90;4.38;;;;;;;;;;2069279;28;20271;-55
2021/07/15 04:30:18;;;;;;;5.57;4.57;;;;;;;;;;2073053;28;20173;-50
2021/07/15 04:31:25;;;;;;;5.00;4.50;;;;;;;;;;2072864;28;20192;-51
2021/07/15 04:32:26;;;;;;;4.47;4.03;;;;;;;;;;2071624;28;20169;-51
2021/07/15 04:33:28;;;;;;;6.40;4.40;;;;;;;;;;2071164;28;20181;-54
2021/07/15 04:34:29;;;;;;;5.60;4.43;;;;;;;;;;2072355;28;20173;-52
2021/07/15 04:35:31;;;;;;;6.03;4.50;;;;;;;;;;2071691;28;20196;-54
2021/07/15 04:36:31;;;;;;;5.45;4.15;;;;;;;;;;2070381;28;20238;-53
2021/07/15 04:37:32;;;;;;;7.00;4.95;;;;;;;;;;2064836;28;20181;-53
2021/07/15 04:38:33;;;;;;;6.32;4.25;;;;;;;;;;2054527;28;20317;-52
2021/07/15 04:39:34;;;;;;;7.78;4.55;;;;;;;;;;2063484;28;20216;-54
2021/07/15 04:40:34;;;;;;;5.90;4.22;;;;;;;;;;2068565;28;20169;-53
2021/07/15 04:41:35;;;;;;;5.45;4.63;;;;;;;;;;2071021;28;20181;-51
2021/07/15 04:42:39;;;;;;;5.18;4.70;;;;;;;;;;2072640;28;20885;-51
2021/07/15 04:43:39;;;;;;;4.88;4.47;;;;;;;;;;2071398;28;20707;-55
2021/07/15 04:44:40;;;;;;;9.43;4.75;;;;;;;;;;2072489;28;20221;-51
2021/07/15 04:45:41;;;;;;;6.28;4.68;;;;;;;;;;2073275;28;20287;-51
2021/07/15 04:46:42;;;;;;;6.18;4.57;;;;;;;;;;2072907;28;20219;-50
2021/07/15 04:47:46;;;;;;;4.35;3.97;;;;;;;;;;2073232;28;20273;-53
2021/07/15 04:48:47;;;;;;;5.80;4.28;;;;;;;;;;2071337;28;20179;-52
2021/07/15 04:49:47;;;;;;;4.80;4.32;;;;;;;;;;2072458;28;20177;-54
2021/07/15 04:50:48;;;;;;;6.45;4.68;;;;;;;;;;2070649;28;20837;-53
2021/07/15 04:51:49;;;;;;;5.60;4.13;;;;;;;;;;2072171;28;20181;-53
2021/07/15 04:52:53;;;;;;;7.32;3.97;;;;;;;;;;2065772;28;20255;-54
2021/07/15 04:53:54;;;;;;;6.10;3.80;;;;;;;;;;2067319;28;20173;-53
2021/07/15 04:54:54;;;;;;;8.02;4.75;;;;;;;;;;2066115;28;20170;-51
2021/07/15 04:55:55;;;;;;;4.43;4.00;;;;;;;;;;2071486;28;20633;-54
2021/07/15 04:56:55;;;;;;;7.95;4.85;;;;;;;;;;2068945;28;20246;-54
2021/07/15 04:57:56;;;;;;;4.25;3.85;;;;;;;;;;2071266;28;20189;-55
2021/07/15 04:58:57;;;;;;;4.32;3.95;;;;;;;;;;2072487;28;20216;-52
2021/07/15 04:59:58;;;;;;;4.50;4.20;;;;;;;;;;2069541;28;20191;-55
2021/07/15 05:00:59;;;;;;;9.18;4.53;;;;;;;;;;2071891;28;20176;-52
2021/07/15 05:01:59;;;;;;;5.05;4.65;;;;;;;;;;2072574;28;20672;-55
2021/07/15 05:03:01;;;;;;;6.97;3.97;;;;;;;;;;2073054;28;20165;-52
2021/07/15 05:04:01;;;;;;;4.47;4.07;;;;;;;;;;2072667;28;20677;-55
2021/07/15 05:05:02;;;;;;;5.72;4.10;;;;;;;;;;2072299;28;20173;-53
2021/07/15 05:06:04;;;;;;;5.03;4.30;;;;;;;;;;2069578;28;20212;-55
2021/07/15 05:07:04;;;;;;;5.97;4.82;;;;;;;;;;2072335;28;20182;-51
2021/07/15 05:08:05;;;;;;;4.18;3.88;;;;;;;;;;2072265;28;20189;-54
2021/07/15 05:09:06;;;;;;;6.18;4.07;;;;;;;;;;2063588;28;20170;-54
2021/07/15 05:10:07;;;;;;;10.55;6.43;;;;;;;;;;2051557;28;20186;-56
2021/07/15 05:11:08;;;;;;;5.65;4.90;;;;;;;;;;2075668;28;20188;-54
2021/07/15 05:12:09;;;;;;;5.03;4.57;;;;;;;;;;2068529;28;20608;-55
2021/07/15 05:13:09;;;;;;;9.73;6.70;;;;;;;;;;2072720;28;20173;-53
2021/07/15 05:14:09;;;;;;;6.93;5.60;;;;;;;;;;2068758;28;20177;-50
2021/07/15 05:15:11;;;;;;;8.05;6.13;;;;;;;;;;2064143;28;20162;-54
2021/07/15 05:16:11;;;;;;;5.57;4.22;;;;;;;;;;2064478;28;20212;-55
2021/07/15 05:17:11;;;;;;;5.57;4.18;;;;;;;;;;2071472;28;20228;-54
2021/07/15 05:18:12;;;;;;;7.30;6.13;;;;;;;;;;2068894;28;20180;-53
2021/07/15 05:19:13;;;;;;;4.43;4.03;;;;;;;;;;2075530;28;20183;-49
2021/07/15 05:20:13;;;;;;;7.78;5.38;;;;;;;;;;2072840;28;20272;-51
2021/07/15 05:21:13;;;;;;;5.15;3.83;;;;;;;;;;2071538;28;20200;-56
2021/07/15 05:22:14;;;;;;;4.07;3.15;;;;;;;;;;2068420;28;20223;-52
2021/07/15 05:23:14;;;;;;;5.53;4.28;;;;;;;;;;2070981;28;20262;-52
2021/07/15 05:24:14;;;;;;;5.50;5.00;;;;;;;;;;2073240;28;20196;-55
2021/07/15 05:25:15;;;;;;;4.32;3.40;;;;;;;;;;2071085;28;20169;-54
2021/07/15 05:26:15;;;;;;;11.00;4.03;;;;;;;;;;2060466;28;20190;-54
2021/07/15 05:27:16;;;;;;;3.03;2.72;;;;;;;;;;2060445;28;20181;-54
2021/07/15 05:28:16;;;;;;;8.52;3.35;;;;;;;;;;2052685;28;20244;-52
2021/07/15 05:29:16;;;;;;;3.55;3.20;;;;;;;;;;2062513;28;20262;-53
2021/07/15 05:30:17;;;;;;;3.92;3.63;;;;;;;;;;2078604;28;20642;-53
2021/07/15 05:31:18;;;;;;;3.83;3.53;;;;;;;;;;2066194;28;20747;-52
2021/07/15 05:32:18;;;;;;;7.25;4.85;;;;;;;;;;2068275;28;20668;-51
2021/07/15 05:33:18;;;;;;;10.50;3.17;;;;;;;;;;2068256;28;20268;-53
2021/07/15 05:34:19;;;;;;;3.97;2.50;;;;;;;;;;2069414;28;20184;-51
2021/07/15 05:35:19;;;;;;;2.80;2.60;;;;;;;;;;2069981;28;20234;-51
2021/07/15 05:36:20;;;;;;;3.33;2.85;;;;;;;;;;2068603;28;20209;-53
2021/07/15 05:37:20;;;;;;;5.22;2.95;;;;;;;;;;2070094;28;20192;-52
2021/07/15 05:38:20;;;;;;;2.72;2.53;;;;;;;;;;2071416;28;20223;-54
2021/07/15 05:39:20;;;;;;;3.65;2.80;;;;;;;;;;2069671;28;20192;-51
2021/07/15 05:40:21;;;;;;;3.58;3.17;;;;;;;;;;2070262;28;20215;-53
2021/07/15 05:41:21;;;;;;;4.30;3.00;;;;;;;;;;2069747;28;20185;-53
2021/07/15 05:42:21;;;;;;;4.63;3.83;;;;;;;;;;2070674;28;20176;-54
2021/07/15 05:43:22;;;;;;;5.43;3.15;;;;;;;;;;2070233;28;20196;-51
2021/07/15 05:44:22;;;;;;;4.53;3.20;;;;;;;;;;2074274;28;20200;-53
2021/07/15 05:45:22;;;;;;;4.60;3.35;;;;;;;;;;2072808;28;20259;-54
2021/07/15 05:46:23;;;;;;;6.15;3.13;;;;;;;;;;2071402;28;20227;-56
2021/07/15 05:47:23;;;;;;;3.05;2.80;;;;;;;;;;2071784;28;20173;-56
2021/07/15 05:48:23;;;;;;;4.40;3.22;;;;;;;;;;2071078;28;20176;-55
2021/07/15 05:49:23;;;;;;;6.65;2.90;;;;;;;;;;2071326;28;20177;-55
2021/07/15 05:50:24;;;;;;;3.63;3.35;;;;;;;;;;2073324;28;20660;-55
2021/07/15 05:51:24;;;;;;;3.05;2.65;;;;;;;;;;2071528;28;20183;-57
2021/07/15 05:52:24;;;;;;;5.15;2.55;;;;;;;;;;2071752;28;20173;-57
2021/07/15 05:53:24;;;;;;;4.78;2.97;;;;;;;;;;2070849;28;20169;-56
2021/07/15 05:54:25;;;;;;;3.28;2.63;;;;;;;;;;2073108;28;20178;-54
2021/07/15 05:55:26;;;;;;;3.35;3.05;;;;;;;;;;2072677;28;20189;-58
2021/07/15 05:56:26;;;;;;;4.40;3.05;;;;;;;;;;2074354;28;20231;-57
2021/07/15 05:57:27;;;;;;;3.90;3.25;;;;;;;;;;2073478;28;20183;-59
2021/07/15 05:58:27;;;;;;;4.85;2.65;;;;;;;;;;2074150;28;20238;-54
2021/07/15 05:59:27;;;;;;;4.85;2.88;;;;;;;;;;2073793;28;20800;-55
2021/07/15 06:00:28;;;;;;;5.72;3.13;;;;;;;;;;2070735;28;20180;-53
2021/07/15 06:01:28;;;;;;;4.10;2.88;;;;;;;;;;2071734;28;20231;-56
2021/07/15 06:02:28;;;;;;;3.47;2.80;;;;;;;;;;2072410;28;20196;-56
2021/07/15 06:03:28;;;;;;;2.83;2.63;;;;;;;;;;2073458;28;20184;-52
2021/07/15 06:04:29;;;;;;;3.92;2.97;;;;;;;;;;2070434;28;20176;-54
2021/07/15 06:05:30;;;;;;;2.85;2.50;;;;;;;;;;2074641;28;20208;-52
2021/07/15 06:06:30;;;;;;;2.88;2.67;;;;;;;;;;2072384;28;20700;-53
2021/07/15 06:07:31;;;;;;;2.95;2.70;;;;;;;;;;2074596;28;20176;-56
2021/07/15 06:08:31;;;;;;;3.00;2.40;;;;;;;;;;2072193;28;20248;-55
2021/07/15 06:09:31;;;;;;;3.92;2.60;;;;;;;;;;2073775;28;20175;-55
2021/07/15 06:10:31;;;;;;;2.90;2.70;;;;;;;;;;2073628;28;20173;-55
2021/07/15 06:11:32;;;;;;;6.60;3.58;;;;;;;;;;2073777;28;20173;-55